TimeEDT,TemperatureF,Dew PointF,Humidity,Sea Level PressureIn,VisibilityMPH,Wind Direction,Wind SpeedMPH,Gust SpeedMPH,PrecipitationIn,Events,Conditions,WindDirDegrees,DateUTC
12:55 AM,46.9,43.0,86,30.04,10.0,ENE,4.6,-,N/A,,Clear,60,2012-10-23 04:55:00
1:55 AM,50.0,42.1,74,30.03,10.0,ENE,10.4,-,N/A,,Clear,60,2012-10-23 05:55:00
2:55 AM,50.0,41.0,71,30.04,10.0,ENE,11.5,19.6,N/A,,Clear,60,2012-10-23 06:55:00
3:55 AM,50.0,41.0,71,30.05,10.0,ENE,8.1,-,N/A,,Overcast,70,2012-10-23 07:55:00
4:55 AM,50.0,41.0,71,30.05,10.0,ENE,6.9,-,N/A,,Overcast,70,2012-10-23 08:55:00
5:55 AM,48.9,41.0,74,30.05,10.0,ENE,10.4,-,N/A,,Overcast,60,2012-10-23 09:55:00
6:55 AM,48.0,41.0,77,30.06,10.0,ENE,10.4,-,N/A,,Clear,70,2012-10-23 10:55:00
7:55 AM,46.9,41.0,80,30.07,10.0,ENE,10.4,-,N/A,,Clear,70,2012-10-23 11:55:00
8:55 AM,48.0,41.0,77,30.08,10.0,East,5.8,-,N/A,,Partly Cloudy,80,2012-10-23 12:55:00
9:55 AM,51.1,41.0,68,30.07,10.0,East,8.1,-,N/A,,Clear,80,2012-10-23 13:55:00
10:55 AM,54.0,41.0,62,30.06,10.0,East,13.8,19.6,N/A,,Clear,90,2012-10-23 14:55:00
11:55 AM,55.0,41.0,59,30.06,10.0,ESE,9.2,19.6,N/A,,Clear,110,2012-10-23 15:55:00
12:55 PM,57.0,41.0,55,30.07,10.0,East,11.5,18.4,N/A,,Mostly Cloudy,90,2012-10-23 16:55:00
1:55 PM,57.0,42.1,57,30.06,10.0,SE,11.5,-,N/A,,Overcast,140,2012-10-23 17:55:00
2:55 PM,57.0,42.1,57,30.04,10.0,ESE,9.2,18.4,N/A,,Overcast,110,2012-10-23 18:55:00
3:55 PM,55.9,41.0,57,30.03,10.0,ESE,9.2,23.0,N/A,,Overcast,120,2012-10-23 19:55:00
4:55 PM,55.9,42.1,60,30.03,10.0,ESE,9.2,-,N/A,,Overcast,120,2012-10-23 20:55:00
5:55 PM,55.0,42.1,62,30.04,10.0,SE,10.4,-,N/A,,Overcast,130,2012-10-23 21:55:00
6:55 PM,54.0,41.0,62,30.04,10.0,SE,9.2,18.4,N/A,,Overcast,130,2012-10-23 22:55:00
7:51 PM,53.6,39.2,58,30.06,10.0,East,13.8,19.6,N/A,,Overcast,100,2012-10-23 23:51:00
7:55 PM,53.1,39.9,61,30.06,10.0,ESE,10.4,19.6,N/A,,Overcast,120,2012-10-23 23:55:00
8:55 PM,53.1,39.9,61,30.05,10.0,ESE,12.7,24.2,N/A,,Overcast,110,2012-10-24 00:55:00
9:55 PM,51.1,39.0,63,30.07,10.0,ESE,10.4,24.2,N/A,,Overcast,110,2012-10-24 01:55:00
10:55 PM,51.1,39.0,63,30.07,10.0,ESE,12.7,21.9,N/A,,Overcast,110,2012-10-24 02:55:00
11:55 PM,48.9,41.0,74,30.07,10.0,East,10.4,-,N/A,,Overcast,100,2012-10-24 03:55:00